METAR Data
IDs: Format: Raw Decoded Include TAF

Data at: 0719 UTC 23 Feb 2019

RJNT 230700Z 04009KT 010V070 9999 FEW040 SCT070 08/M07 Q1019
RJNT 230600Z 03006KT 350V110 9999 FEW030 08/M04 Q1019
RJNT 230500Z 35012KT 9999 FEW030 SCT040 09/M03 Q1018
RJNT 230400Z 01011KT 9999 FEW020 SCT030 09/M03 Q1018
RJNT 230300Z 03007KT 350V090 9999 VCSH FEW020 SCT030 09/M01 Q1018
RJNT 230200Z VRB01KT 9000 VCSH FEW010 SCT025 07/04 Q1018
RJNT 230100Z 19003KT 9000 -SHRA FEW008 SCT020 05/03 Q1018
RJNT 230040Z 19005KT 160V220 8000 -SHRA BR FEW005 SCT010 BKN020 04/03 Q1018 RMK 1CU005 3CU010 5CU020 A3008 2000E-S
RJNT 230030Z 22004KT 2000 SHRA BR FEW005 SCT010 BKN020 04/03 Q1018 RMK 1CU005 4CU010 6CU020 A3008
RJNT 230026Z VRB02KT 2000 -SHRA BR FEW005 SCT010 BKN020 04/03 Q1018 RMK 1CU005 4CU010 6CU020 A3009
RJNT 230023Z VRB02KT 4000 -SHRA BR FEW005 SCT015 BKN020 04/03 Q1018 RMK 1CU005 4CU015 6CU020 A3009
RJNT 230000Z 19004KT 140V210 6000 -SHRA FEW005 SCT015 BKN020 04/03 Q1018
RJNT 222300Z VRB02KT 5000 -SHRA BR FEW007 SCT010 BKN015 03/02 Q1017
RJNT 222240Z VRB02KT 5000 -SHRA BR FEW010 SCT015 BKN030 04/03 Q1017 RMK 1CU010 3CU015 5CU030 A3005
RJNT 222200Z 32003KT 250V350 4500 -SHRA BR FEW020 BKN030 BKN050 03/02 Q1017
RJNT 222110Z VRB01KT 9000 -SHRA FEW030 BKN050 03/01 Q1016 RMK 1CU030 6SC050 A3002
RJNT 221200Z 19003KT 120V220 9999 FEW030 SCT/// 04/02 Q1017
RJNT 221100Z VRB02KT 9999 FEW030 BKN/// 06/02 Q1018
RJNT 221000Z 04004KT 010V070 9999 FEW030 SCT040 BKN/// 07/01 Q1018
RJNT 220900Z 03004KT 360V060 9999 FEW030 SCT040 BKN/// 08/00 Q1018
RJNT 220800Z 02006KT 9999 FEW030 SCT040 BKN/// 08/00 Q1018